Time;durP1;ratioP1;P1;durP2;ratioP2;P2;SDS_P1;SDS_P2;PMS_P1;PMS_P2;Temp;Humidity;BMP_temperature;BMP_pressure;BME280_temperature;BME280_humidity;BME280_pressure;Samples;Min_cycle;Max_cycle;Signal;HPM_P1;HPM_P2
2022/04/13 00:02:24;;;;;;;22.60;8.50;;;;;;;6.18;48.22;101097.26;105493;1281;26508;-80
2022/04/13 00:04:51;;;;;;;16.30;7.30;;;;;;;6.17;48.24;101097.59;105520;1281;22577;-80
2022/04/13 00:07:18;;;;;;;20.40;9.80;;;;;;;6.14;48.22;101095.43;105471;1284;23980;-81
2022/04/13 00:09:45;;;;;;;17.60;8.30;;;;;;;6.10;48.23;101099.71;105494;1282;23029;-80
2022/04/13 00:12:12;;;;;;;25.80;10.40;;;;;;;6.07;48.29;101099.50;105508;1281;22793;-78
2022/04/13 00:14:39;;;;;;;18.20;10.40;;;;;;;6.06;47.98;101104.36;105787;1277;22712;-81
2022/04/13 00:17:06;;;;;;;18.50;9.70;;;;;;;6.07;48.05;101107.53;105644;1277;22543;-77
2022/04/13 00:19:34;;;;;;;24.10;10.50;;;;;;;6.05;48.18;101105.23;105818;1278;25606;-76
2022/04/13 00:22:01;;;;;;;33.10;11.60;;;;;;;6.05;48.07;101105.56;105840;1278;25458;-82
2022/04/13 00:24:28;;;;;;;19.30;9.70;;;;;;;6.07;48.10;101106.66;106153;1276;23402;-81
2022/04/13 00:26:57;;;;;;;18.20;9.70;;;;;;;6.07;48.26;101104.91;105729;1278;24286;-82
2022/04/13 00:29:25;;;;;;;21.90;11.00;;;;;;;6.07;48.44;101104.57;105949;1277;22575;-83
2022/04/13 00:31:52;;;;;;;19.80;11.10;;;;;;;6.05;48.54;101105.73;105915;1278;25366;-82
2022/04/13 00:34:19;;;;;;;22.40;10.50;;;;;;;6.04;48.32;101105.86;105815;1276;22919;-81
2022/04/13 00:36:46;;;;;;;23.60;11.10;;;;;;;6.02;48.30;101104.27;105797;1276;23068;-80
2022/04/13 00:39:13;;;;;;;20.40;12.40;;;;;;;5.99;48.09;101105.92;105896;1278;23995;-82
2022/04/13 00:41:40;;;;;;;26.90;12.30;;;;;;;5.98;48.20;101107.48;105852;1278;24407;-81
2022/04/13 00:44:11;;;;;;;19.80;11.90;;;;;;;5.99;48.46;101106.29;105954;1278;23558;-79
2022/04/13 00:46:38;;;;;;;18.90;11.20;;;;;;;5.92;48.04;101106.48;106180;1281;25378;-79
2022/04/13 00:49:07;;;;;;;26.20;11.80;;;;;;;5.91;48.04;101112.06;105720;1287;22855;-84
2022/04/13 00:51:34;;;;;;;22.30;11.40;;;;;;;5.90;48.66;101106.80;106180;1286;22549;-80
2022/04/13 00:54:03;;;;;;;22.80;12.30;;;;;;;5.88;48.67;101110.06;106308;1287;22480;-82
2022/04/13 00:56:32;;;;;;;26.20;11.60;;;;;;;5.85;48.73;101110.19;106259;1285;22607;-81
2022/04/13 00:59:11;;;;;;;28.30;11.80;;;;;;;5.84;48.97;101106.85;106784;1285;23908;-81
2022/04/13 01:01:46;;;;;;;21.00;12.10;;;;;;;5.87;49.48;101110.91;106481;1285;24288;-80
2022/04/13 01:04:14;;;;;;;25.00;12.20;;;;;;;5.85;49.80;101110.19;105582;1284;25833;-79
2022/04/13 01:06:43;;;;;;;23.50;11.50;;;;;;;5.84;49.96;101111.56;105564;1278;24245;-84
2022/04/13 01:09:12;;;;;;;21.60;11.40;;;;;;;5.81;50.26;101113.41;106126;1276;27079;-79
2022/04/13 01:11:40;;;;;;;22.90;12.50;;;;;;;5.79;50.13;101109.52;106116;1277;23155;-80
2022/04/13 01:14:09;;;;;;;25.00;12.10;;;;;;;5.78;50.28;101109.69;106227;1277;25368;-77
2022/04/13 01:16:39;;;;;;;21.40;11.20;;;;;;;5.76;50.38;101112.59;106082;1277;22577;-81
2022/04/13 01:19:08;;;;;;;20.60;11.60;;;;;;;5.75;50.70;101114.15;106046;1278;25363;-80
2022/04/13 01:21:45;;;;;;;22.00;11.60;;;;;;;5.72;50.86;101118.11;106215;1276;22554;-80
2022/04/13 01:24:14;;;;;;;25.30;12.40;;;;;;;5.67;50.84;101116.60;106325;1277;22601;-80
2022/04/13 01:26:41;;;;;;;23.40;11.30;;;;;;;5.62;51.02;101123.14;106395;1278;22574;-78
2022/04/13 01:29:12;;;;;;;19.80;11.60;;;;;;;5.61;51.25;101118.03;106294;1277;24202;-79
2022/04/13 01:31:40;;;;;;;24.60;11.70;;;;;;;5.56;51.37;101115.66;106346;1276;27259;-80
2022/04/13 01:34:08;;;;;;;25.00;11.10;;;;;;;5.52;51.56;101117.66;106236;1278;26506;-82
2022/04/13 01:36:37;;;;;;;21.10;11.60;;;;;;;5.50;51.72;101116.71;106187;1276;23119;-82
2022/04/13 01:39:05;;;;;;;20.80;12.10;;;;;;;5.49;51.74;101118.30;106206;1278;25399;-79
2022/04/13 01:41:32;;;;;;;24.30;12.40;;;;;;;5.48;51.62;101118.94;106078;1277;25374;-76
2022/04/13 01:43:59;;;;;;;21.50;12.00;;;;;;;5.47;51.72;101118.95;106437;1276;25361;-79
2022/04/13 01:46:26;;;;;;;22.00;12.40;;;;;;;5.48;51.84;101120.02;106056;1282;25261;-81
2022/04/13 01:48:53;;;;;;;23.20;12.30;;;;;;;5.45;51.95;101120.30;105701;1281;24607;-79
2022/04/13 01:51:21;;;;;;;22.30;13.10;;;;;;;5.44;52.01;101125.15;105468;1282;24275;-75
2022/04/13 01:53:49;;;;;;;22.30;12.40;;;;;;;5.42;52.14;101128.42;105721;1282;24204;-81
2022/04/13 01:56:17;;;;;;;22.30;12.90;;;;;;;5.40;52.27;101124.70;105514;1282;22573;-79
2022/04/13 01:58:45;;;;;;;19.50;12.30;;;;;;;5.41;52.21;101127.52;105276;1282;26054;-79
2022/04/13 02:01:12;;;;;;;26.80;13.20;;;;;;;5.40;51.80;101127.15;105508;1282;25470;-86
2022/04/13 02:03:40;;;;;;;22.70;13.60;;;;;;;5.37;52.17;101129.89;105637;1281;24262;-81
2022/04/13 02:06:08;;;;;;;25.20;13.70;;;;;;;5.32;52.20;101135.34;105598;1281;25391;-79
2022/04/13 02:08:35;;;;;;;23.40;13.60;;;;;;;5.27;52.33;101133.46;105277;1282;22562;-79
2022/04/13 02:11:04;;;;;;;24.20;13.40;;;;;;;5.23;52.47;101133.56;105608;1282;22548;-80
2022/04/13 02:13:30;;;;;;;25.40;12.90;;;;;;;5.21;52.67;101138.58;105514;1282;25832;-78
2022/04/13 02:15:58;;;;;;;24.90;13.20;;;;;;;5.20;52.96;101139.27;105368;1281;23964;-77
2022/04/13 02:18:25;;;;;;;24.70;13.50;;;;;;;5.21;53.05;101138.23;105459;1282;24298;-78
2022/04/13 02:20:52;;;;;;;23.30;13.10;;;;;;;5.18;53.03;101138.52;105409;1282;23215;-79
2022/04/13 02:23:18;;;;;;;28.30;13.00;;;;;;;5.17;53.17;101134.81;105551;1282;25263;-78
2022/04/13 02:25:46;;;;;;;24.60;13.00;;;;;;;5.15;53.08;101131.97;105854;1276;22566;-78
2022/04/13 02:28:13;;;;;;;26.20;13.50;;;;;;;5.15;53.08;101133.20;105922;1276;25307;-77
2022/04/13 02:30:39;;;;;;;26.60;14.00;;;;;;;5.13;53.17;101136.98;105880;1276;24259;-77
2022/04/13 02:33:12;;;;;;;26.50;14.00;;;;;;;5.11;53.08;101141.30;105809;1276;24204;-75
2022/04/13 02:35:39;;;;;;;22.90;13.40;;;;;;;5.12;53.04;101145.87;105722;1277;24761;-80
2022/04/13 02:38:06;;;;;;;24.60;14.20;;;;;;;5.10;53.19;101143.70;105776;1278;25241;-78
2022/04/13 02:40:33;;;;;;;25.30;15.40;;;;;;;5.08;53.26;101151.85;105888;1276;25366;-79
2022/04/13 02:43:00;;;;;;;24.90;14.60;;;;;;;5.05;53.52;101157.40;105571;1277;22632;-77
2022/04/13 02:45:28;;;;;;;28.70;15.50;;;;;;;5.06;53.60;101161.23;105742;1277;24248;-78
2022/04/13 02:47:55;;;;;;;24.10;14.30;;;;;;;5.02;53.66;101159.92;105741;1277;22541;-79
2022/04/13 02:50:23;;;;;;;28.00;14.40;;;;;;;4.98;53.81;101156.15;105328;1281;25404;-81
2022/04/13 02:52:52;;;;;;;23.70;13.40;;;;;;;4.96;53.96;101151.05;105334;1281;25775;-80
2022/04/13 02:55:19;;;;;;;26.80;13.60;;;;;;;4.94;54.13;101148.91;105190;1282;24402;-78
2022/04/13 02:57:46;;;;;;;24.50;13.90;;;;;;;4.92;54.19;101146.73;104770;1288;24674;-78
2022/04/13 03:00:14;;;;;;;23.20;14.30;;;;;;;4.92;54.14;101147.62;104772;1287;22560;-78
2022/04/13 03:02:41;;;;;;;26.30;15.20;;;;;;;4.89;54.12;101141.96;104791;1287;22572;-80
2022/04/13 03:05:09;;;;;;;30.40;15.70;;;;;;;4.88;54.03;101140.70;104796;1287;24160;-77
2022/04/13 03:07:36;;;;;;;24.90;15.10;;;;;;;4.88;54.19;101144.02;104739;1288;25442;-77
2022/04/13 03:10:04;;;;;;;25.10;14.60;;;;;;;4.88;54.00;101142.45;104982;1282;25488;-76
2022/04/13 03:12:33;;;;;;;25.50;14.70;;;;;;;4.84;54.03;101149.33;105287;1281;22559;-77
2022/04/13 03:15:07;;;;;;;23.60;15.60;;;;;;;4.82;54.29;101141.08;105403;1279;24234;-77
2022/04/13 03:17:35;;;;;;;26.70;15.90;;;;;;;4.83;54.33;101143.55;105737;1276;24204;-77
2022/04/13 03:20:02;;;;;;;29.20;16.10;;;;;;;4.77;54.56;101144.79;105686;1279;24236;-78
2022/04/13 03:22:29;;;;;;;29.40;17.90;;;;;;;4.71;54.43;101152.66;105649;1277;25243;-76
2022/04/13 03:25:00;;;;;;;29.90;17.70;;;;;;;4.68;54.56;101150.30;105359;1281;22565;-75
2022/04/13 03:27:27;;;;;;;28.20;16.90;;;;;;;4.67;54.78;101148.70;105111;1281;22922;-78
2022/04/13 03:29:54;;;;;;;30.60;18.20;;;;;;;4.70;54.90;101151.40;105450;1282;22497;-76
2022/04/13 03:32:21;;;;;;;38.00;19.20;;;;;;;4.74;54.79;101147.67;105495;1281;23953;-79
2022/04/13 03:34:49;;;;;;;32.10;19.40;;;;;;;4.77;54.96;101145.48;105198;1282;25174;-76
2022/04/13 03:37:16;;;;;;;36.50;20.40;;;;;;;4.82;55.09;101146.66;105318;1281;24421;-76
2022/04/13 03:39:43;;;;;;;33.20;21.90;;;;;;;4.84;55.17;101148.27;105508;1281;22568;-79
2022/04/13 03:42:10;;;;;;;36.30;21.20;;;;;;;4.82;55.11;101145.44;105192;1282;25255;-78
2022/04/13 03:44:38;;;;;;;37.20;20.30;;;;;;;4.79;55.16;101146.41;105872;1276;22565;-75
2022/04/13 03:47:06;;;;;;;30.70;19.40;;;;;;;4.81;55.25;101142.62;105761;1276;24102;-80
2022/04/13 03:49:33;;;;;;;31.00;19.80;;;;;;;4.79;55.11;101143.80;105738;1276;22641;-79
2022/04/13 03:51:59;;;;;;;32.00;19.40;;;;;;;4.73;55.17;101143.45;105538;1276;25374;-74
2022/04/13 03:54:27;;;;;;;32.80;18.90;;;;;;;4.71;55.15;101150.04;105745;1276;22548;-77
2022/04/13 03:56:53;;;;;;;34.00;20.40;;;;;;;4.70;55.14;101150.39;105875;1276;22548;-78
2022/04/13 03:59:22;;;;;;;34.40;20.70;;;;;;;4.72;55.42;101153.73;105882;1276;22531;-82
2022/04/13 04:01:49;;;;;;;34.50;19.40;;;;;;;4.77;55.34;101153.85;105953;1276;22527;-77
2022/04/13 04:04:17;;;;;;;37.90;20.30;;;;;;;4.78;55.40;101154.77;105641;1277;25308;-79
2022/04/13 04:06:44;;;;;;;34.40;19.60;;;;;;;4.83;55.43;101165.71;105623;1276;22558;-79
2022/04/13 04:09:10;;;;;;;33.30;19.70;;;;;;;4.81;55.55;101170.90;105664;1276;22554;-80
2022/04/13 04:11:37;;;;;;;34.60;20.00;;;;;;;4.77;55.74;101167.83;105654;1276;25254;-80
2022/04/13 04:14:04;;;;;;;47.40;21.60;;;;;;;4.76;55.91;101170.06;105617;1276;22481;-78
2022/04/13 04:16:31;;;;;;;44.20;23.00;;;;;;;4.78;55.94;101176.92;105690;1276;22729;-79
2022/04/13 04:18:58;;;;;;;35.20;22.40;;;;;;;4.77;56.00;101178.80;105803;1276;22556;-79
2022/04/13 04:21:25;;;;;;;38.30;22.40;;;;;;;4.75;56.16;101177.52;105852;1276;25376;-80
2022/04/13 04:23:52;;;;;;;34.50;21.40;;;;;;;4.71;56.14;101177.07;105932;1276;22572;-79
2022/04/13 04:26:19;;;;;;;36.80;21.00;;;;;;;4.70;56.17;101182.83;105457;1278;25403;-76
2022/04/13 04:28:46;;;;;;;34.90;20.60;;;;;;;4.73;56.24;101186.02;105805;1276;22632;-77
2022/04/13 04:31:13;;;;;;;39.20;20.90;;;;;;;4.76;56.30;101188.20;105891;1277;25405;-78
2022/04/13 04:33:40;;;;;;;41.50;21.70;;;;;;;4.74;56.20;101189.89;105922;1276;25377;-79
2022/04/13 04:36:06;;;;;;;32.60;20.00;;;;;;;4.77;56.33;101195.56;105973;1276;25357;-81
2022/04/13 04:38:33;;;;;;;34.90;21.30;;;;;;;4.81;56.29;101198.48;105923;1276;22547;-81
2022/04/13 04:41:01;;;;;;;36.60;21.20;;;;;;;4.87;56.38;101198.11;105877;1276;24259;-82
2022/04/13 04:43:27;;;;;;;38.60;21.70;;;;;;;4.87;56.52;101197.25;105653;1276;22572;-80
2022/04/13 04:45:55;;;;;;;34.80;21.50;;;;;;;4.88;56.36;101204.95;105675;1276;22535;-80
2022/04/13 04:48:21;;;;;;;42.80;21.00;;;;;;;4.89;56.29;101206.88;106167;1278;22569;-81
2022/04/13 04:50:50;;;;;;;39.80;21.60;;;;;;;4.89;56.16;101204.28;107089;1276;22984;-82
2022/04/13 04:53:17;;;;;;;37.20;22.10;;;;;;;4.89;56.31;101203.23;107680;1278;25325;-82
2022/04/13 04:55:44;;;;;;;33.30;21.00;;;;;;;4.95;56.44;101208.11;107714;1277;25327;-80
2022/04/13 04:58:11;;;;;;;31.70;20.30;;;;;;;4.99;56.35;101205.41;107692;1277;22511;-78
2022/04/13 05:00:39;;;;;;;40.90;22.20;;;;;;;5.02;56.36;101207.39;107721;1277;22480;-81
2022/04/13 05:03:08;;;;;;;38.80;22.90;;;;;;;5.03;56.32;101208.66;107637;1276;22595;-82
2022/04/13 05:05:39;;;;;;;39.10;23.00;;;;;;;5.08;56.41;101203.90;107037;1278;22550;-82
2022/04/13 05:08:08;;;;;;;41.10;22.90;;;;;;;5.15;56.35;101206.54;106326;1276;23930;-81
2022/04/13 05:10:35;;;;;;;36.70;22.80;;;;;;;5.19;56.28;101205.23;106130;1276;25290;-81
2022/04/13 05:13:02;;;;;;;38.90;22.40;;;;;;;5.21;56.11;101203.54;105673;1276;22748;-82
2022/04/13 05:15:30;;;;;;;39.60;23.50;;;;;;;5.25;56.09;101207.47;105812;1276;26486;-84
2022/04/13 05:17:58;;;;;;;42.90;23.90;;;;;;;5.31;55.95;101206.08;105716;1276;25614;-81
2022/04/13 05:20:25;;;;;;;37.10;24.50;;;;;;;5.36;55.99;101206.89;105933;1276;22572;-82
2022/04/13 05:22:52;;;;;;;39.80;22.80;;;;;;;5.38;55.87;101210.45;105745;1276;22554;-80
2022/04/13 05:25:19;;;;;;;43.10;24.20;;;;;;;5.38;55.88;101209.92;105673;1276;22987;-82
2022/04/13 05:27:46;;;;;;;41.70;24.30;;;;;;;5.38;55.86;101206.08;106032;1276;24413;-78
2022/04/13 05:30:16;;;;;;;50.50;25.00;;;;;;;5.43;55.88;101206.91;105755;1278;22557;-83
2022/04/13 05:32:58;;;;;;;48.20;23.70;;;;;;;5.52;55.84;101209.89;105066;1282;22544;-83
2022/04/13 05:35:26;;;;;;;37.60;24.30;;;;;;;5.58;55.81;101212.52;105131;1281;25427;-82
2022/04/13 05:37:55;;;;;;;41.00;24.10;;;;;;;5.66;55.74;101212.36;105390;1281;22715;-78
2022/04/13 05:40:24;;;;;;;38.90;23.50;;;;;;;5.70;55.51;101212.96;105353;1282;22560;-80
2022/04/13 05:42:55;;;;;;;40.90;24.20;;;;;;;5.75;55.40;101212.73;105434;1282;22717;-80
2022/04/13 05:45:25;;;;;;;40.00;23.30;;;;;;;5.82;55.24;101217.09;105387;1281;25372;-80
2022/04/13 05:47:52;;;;;;;41.40;24.10;;;;;;;5.87;55.04;101219.98;105544;1281;22731;-82
2022/04/13 05:50:20;;;;;;;38.50;23.80;;;;;;;5.91;54.96;101219.92;105282;1279;24449;-82
2022/04/13 05:52:48;;;;;;;42.70;25.00;;;;;;;6.01;54.84;101216.30;105820;1278;22544;-81
2022/04/13 05:55:15;;;;;;;40.60;24.30;;;;;;;6.08;54.55;101220.17;105945;1277;24099;-87
2022/04/13 05:57:42;;;;;;;41.80;24.70;;;;;;;6.14;54.48;101222.75;106157;1276;23094;-85
2022/04/13 06:00:12;;;;;;;39.60;25.20;;;;;;;6.22;54.42;101221.02;106157;1278;22870;-85
2022/04/13 06:02:40;;;;;;;42.60;25.60;;;;;;;6.31;54.30;101220.14;106844;1278;22570;-84
2022/04/13 06:05:09;;;;;;;41.80;25.20;;;;;;;6.39;54.09;101220.48;108180;1278;22594;-83
2022/04/13 06:07:37;;;;;;;38.80;24.00;;;;;;;6.45;53.82;101222.36;107136;1276;22571;-84
2022/04/13 06:10:05;;;;;;;41.20;25.90;;;;;;;6.52;53.86;101230.04;106897;1282;22615;-83
2022/04/13 06:12:33;;;;;;;43.50;25.80;;;;;;;6.61;53.70;101227.94;107383;1281;22560;-83
2022/04/13 06:15:24;;;;;;;45.50;25.40;;;;;;;6.67;53.54;101224.94;107212;1281;25257;-83
2022/04/13 06:17:51;;;;;;;48.10;25.70;;;;;;;6.75;53.36;101226.13;104625;1290;22755;-81
2022/04/13 06:20:18;;;;;;;47.20;25.10;;;;;;;6.83;53.22;101224.70;104584;1290;24243;-80
2022/04/13 06:22:45;;;;;;;44.60;25.50;;;;;;;6.92;53.10;101230.68;104779;1290;24432;-80
2022/04/13 06:25:12;;;;;;;43.50;25.60;;;;;;;7.01;52.78;101235.73;104684;1290;25253;-81
2022/04/13 06:27:40;;;;;;;41.10;24.50;;;;;;;7.09;52.71;101237.12;104904;1284;22596;-82
2022/04/13 06:30:11;;;;;;;41.80;24.80;;;;;;;7.17;52.38;101240.60;104554;1290;22548;-77
2022/04/13 06:32:43;;;;;;;40.90;23.40;;;;;;;7.25;52.22;101241.96;104521;1290;23197;-81
2022/04/13 06:35:16;;;;;;;36.60;23.80;;;;;;;7.34;52.04;101242.13;104582;1290;25795;-80
2022/04/13 06:37:46;;;;;;;36.80;24.30;;;;;;;7.41;51.78;101244.70;105089;1290;22810;-78
2022/04/13 06:40:14;;;;;;;38.10;23.60;;;;;;;7.51;51.53;101247.33;105022;1290;26530;-78
2022/04/13 06:42:42;;;;;;;37.80;22.40;;;;;;;7.60;51.08;101243.98;104685;1290;25413;-80
2022/04/13 06:45:13;;;;;;;38.30;23.00;;;;;;;7.69;50.74;101249.05;104858;1290;22570;-80
2022/04/13 06:47:48;;;;;;;38.50;23.40;;;;;;;7.78;50.60;101249.37;104824;1287;23196;-80
2022/04/13 06:50:18;;;;;;;37.40;23.90;;;;;;;7.86;50.33;101252.81;105666;1285;22541;-77
2022/04/13 06:52:54;;;;;;;38.00;22.50;;;;;;;7.95;50.15;101254.02;106723;1284;26535;-82
2022/04/13 06:55:39;;;;;;;35.10;21.60;;;;;;;8.04;49.69;101259.05;105979;1278;22560;-83
2022/04/13 06:58:20;;;;;;;33.90;21.40;;;;;;;8.13;49.33;101262.17;105847;1281;22558;-83
2022/04/13 07:00:50;;;;;;;28.10;18.00;;;;;;;8.22;48.86;101267.21;105443;1287;22828;-81
2022/04/13 07:03:26;;;;;;;29.60;19.40;;;;;;;8.32;48.35;101264.55;105364;1288;23975;-82
2022/04/13 07:06:04;;;;;;;28.90;19.80;;;;;;;8.40;48.13;101265.02;105141;1287;23942;-81
2022/04/13 07:08:57;;;;;;;27.50;18.60;;;;;;;8.50;47.88;101263.21;104903;1287;22789;-83
2022/04/13 07:11:29;;;;;;;26.20;15.90;;;;;;;8.59;47.71;101262.67;104896;1287;24777;-84
2022/04/13 07:13:58;;;;;;;23.00;15.60;;;;;;;8.68;47.27;101261.19;105084;1287;22561;-84
2022/04/13 07:16:28;;;;;;;26.20;15.60;;;;;;;8.76;46.65;101263.77;104001;1287;775496;-86
2022/04/13 07:18:59;;;;;;;24.50;15.50;;;;;;;8.84;46.21;101259.82;104428;1294;24239;-87
2022/04/13 07:21:31;;;;;;;29.30;16.30;;;;;;;8.89;46.05;101259.89;104366;1293;22709;-87
2022/04/13 07:24:27;;;;;;;22.20;14.30;;;;;;;9.01;45.77;101269.34;104454;1293;22952;-87
2022/04/13 07:26:59;;;;;;;25.90;14.00;;;;;;;9.11;45.52;101264.86;104767;1293;22992;-84
2022/04/13 07:29:34;;;;;;;20.30;12.80;;;;;;;9.21;45.57;101271.48;104794;1287;22896;-84
2022/04/13 07:32:07;;;;;;;16.10;8.70;;;;;;;9.32;44.82;101278.45;105302;1287;22587;-85
2022/04/13 07:34:38;;;;;;;16.40;8.60;;;;;;;9.43;44.24;101281.71;105202;1287;23171;-79
2022/04/13 07:37:08;;;;;;;17.30;9.10;;;;;;;9.52;43.92;101278.99;104434;1293;26513;-79
2022/04/13 07:39:40;;;;;;;13.30;7.60;;;;;;;9.61;43.59;101279.61;104660;1293;26522;-83
2022/04/13 07:42:23;;;;;;;12.50;7.20;;;;;;;9.71;43.17;101280.21;104636;1293;26557;-83
2022/04/13 07:44:56;;;;;;;14.50;7.80;;;;;;;9.78;42.67;101271.30;104386;1290;25254;-84
2022/04/13 07:47:28;;;;;;;12.30;7.50;;;;;;;9.89;42.61;101270.86;104287;1296;24249;-80
2022/04/13 07:49:56;;;;;;;15.30;7.70;;;;;;;10.00;42.44;101274.30;104311;1295;22737;-79
2022/04/13 07:52:28;;;;;;;10.00;5.60;;;;;;;10.12;42.50;101273.15;104109;1296;24300;-83
2022/04/13 07:54:55;;;;;;;9.50;5.20;;;;;;;10.23;41.68;101276.90;104298;1290;25267;-76
2022/04/13 07:57:23;;;;;;;10.90;5.50;;;;;;;10.30;41.27;101279.77;104916;1287;22861;-80
2022/04/13 07:59:50;;;;;;;16.30;7.40;;;;;;;10.38;41.33;101281.58;105335;1290;24259;-82
2022/04/13 08:02:21;;;;;;;14.60;8.30;;;;;;;10.47;41.35;101279.02;104882;1289;22547;-82
2022/04/13 08:04:49;;;;;;;13.50;6.70;;;;;;;10.57;41.15;101283.13;104854;1287;22701;-82
2022/04/13 08:07:16;;;;;;;9.00;6.10;;;;;;;10.66;40.78;101278.24;104611;1288;25904;-82
2022/04/13 08:09:43;;;;;;;9.40;5.80;;;;;;;10.71;39.98;101274.73;104792;1284;22549;-84
2022/04/13 08:12:10;;;;;;;9.80;5.30;;;;;;;10.76;40.14;101275.30;105574;1284;24301;-82
2022/04/13 08:14:38;;;;;;;8.20;4.70;;;;;;;10.87;40.08;101277.80;105359;1283;25533;-83
2022/04/13 08:17:06;;;;;;;8.70;4.60;;;;;;;11.00;39.87;101279.96;105545;1284;24109;-83
2022/04/13 08:19:34;;;;;;;10.20;5.10;;;;;;;11.11;39.40;101275.60;105652;1284;25376;-83
2022/04/13 08:22:01;;;;;;;8.00;4.90;;;;;;;11.22;38.88;101270.69;105527;1284;22734;-84
2022/04/13 08:24:29;;;;;;;8.20;5.00;;;;;;;11.29;38.44;101266.65;105280;1290;24218;-84
2022/04/13 08:27:01;;;;;;;7.40;5.30;;;;;;;11.38;38.69;101265.95;105034;1290;22777;-85
2022/04/13 08:29:29;;;;;;;9.70;5.80;;;;;;;11.51;38.49;101266.50;105166;1287;24258;-82
2022/04/13 08:31:56;;;;;;;10.00;5.60;;;;;;;11.57;38.34;101263.34;105450;1287;22575;-83
2022/04/13 08:34:24;;;;;;;8.90;5.80;;;;;;;11.68;38.26;101265.10;105078;1293;24312;-84
2022/04/13 08:36:55;;;;;;;7.80;4.90;;;;;;;11.82;38.14;101261.40;104588;1296;22619;-83
2022/04/13 08:39:22;;;;;;;9.40;5.30;;;;;;;11.95;37.56;101259.80;104472;1296;22569;-84
2022/04/13 08:41:49;;;;;;;10.50;5.70;;;;;;;12.05;37.43;101259.80;104718;1293;23100;-89
2022/04/13 08:44:25;;;;;;;8.00;5.10;;;;;;;12.19;37.25;101258.40;104562;1293;22663;-74
2022/04/13 08:46:55;;;;;;;6.40;4.30;;;;;;;12.34;36.81;101262.77;105197;1287;23244;-76
2022/04/13 08:49:24;;;;;;;8.60;4.80;;;;;;;12.44;36.22;101253.74;105306;1287;22648;-78
2022/04/13 08:52:05;;;;;;;7.80;4.50;;;;;;;12.56;36.32;101257.23;106514;1281;22612;-90
2022/04/13 08:55:06;;;;;;;8.60;5.00;;;;;;;12.71;35.75;101258.95;107315;1276;22739;-84
2022/04/13 08:57:41;;;;;;;6.80;4.90;;;;;;;12.82;35.49;101259.78;108250;1276;23551;-86
2022/04/13 09:00:19;;;;;;;6.30;4.40;;;;;;;12.99;35.71;101258.29;108203;1276;22832;-83
2022/04/13 09:03:16;;;;;;;7.70;5.10;;;;;;;13.14;35.45;101252.55;107505;1276;25259;-84
2022/04/13 09:05:52;;;;;;;9.60;5.60;;;;;;;13.25;35.21;101250.71;106562;1276;24265;-82
2022/04/13 09:08:43;;;;;;;8.80;5.00;;;;;;;13.40;35.18;101255.73;105984;1276;22554;-82
2022/04/13 09:11:13;;;;;;;7.10;5.20;;;;;;;13.47;34.22;101254.45;105668;1276;25253;-81
2022/04/13 09:13:40;;;;;;;10.40;5.20;;;;;;;13.42;33.63;101249.52;105630;1278;24367;-81
2022/04/13 09:16:09;;;;;;;8.80;5.40;;;;;;;13.36;33.71;101250.46;105765;1279;22563;-83
2022/04/13 09:18:36;;;;;;;8.00;5.10;;;;;;;13.42;33.85;101254.30;105856;1276;25534;-83
2022/04/13 09:21:03;;;;;;;9.50;5.70;;;;;;;13.52;34.24;101255.85;105878;1278;24101;-82
2022/04/13 09:23:30;;;;;;;9.80;5.40;;;;;;;13.69;34.06;101245.29;105811;1279;22745;-81
2022/04/13 09:25:58;;;;;;;8.50;5.60;;;;;;;13.84;33.29;101245.50;105539;1278;22581;-83
2022/04/13 09:28:26;;;;;;;10.90;5.90;;;;;;;13.93;33.06;101247.55;105862;1276;25203;-80
2022/04/13 09:30:55;;;;;;;9.60;5.70;;;;;;;14.06;32.89;101244.41;105876;1279;23920;-84
2022/04/13 09:33:23;;;;;;;9.60;5.90;;;;;;;14.22;32.82;101245.86;105827;1279;22548;-81
2022/04/13 09:35:50;;;;;;;10.30;6.30;;;;;;;14.35;32.79;101234.74;105793;1277;23940;-82
2022/04/13 09:38:19;;;;;;;8.50;6.10;;;;;;;14.49;32.53;101228.89;105963;1278;24094;-88
2022/04/13 09:40:51;;;;;;;11.50;6.90;;;;;;;14.63;32.56;101217.04;105834;1279;25429;-83
2022/04/13 09:43:21;;;;;;;12.40;6.10;;;;;;;14.77;32.27;101218.45;105210;1284;23704;-82
2022/04/13 09:45:50;;;;;;;8.90;5.50;;;;;;;14.93;32.25;101219.69;105291;1282;25260;-82
2022/04/13 09:48:23;;;;;;;8.20;5.50;;;;;;;15.09;31.79;101210.23;105794;1282;22672;-88
2022/04/13 09:50:52;;;;;;;7.40;5.20;;;;;;;15.23;31.69;101205.77;105807;1282;22605;-88
2022/04/13 09:53:22;;;;;;;9.60;5.60;;;;;;;15.45;31.57;101206.66;105519;1282;22545;-84
2022/04/13 09:56:08;;;;;;;6.10;4.50;;;;;;;15.65;31.11;101205.09;105516;1282;24532;-83
2022/04/13 09:58:40;;;;;;;8.20;5.30;;;;;;;15.80;30.58;101197.02;104926;1290;22590;-85
2022/04/13 10:01:08;;;;;;;7.30;4.80;;;;;;;16.01;30.51;101196.30;105626;1281;24152;-84
2022/04/13 10:03:54;;;;;;;5.60;4.60;;;;;;;16.20;30.17;101193.46;106795;1282;22546;-84
2022/04/13 10:06:28;;;;;;;6.80;4.70;;;;;;;16.49;29.97;101191.81;106796;1284;25312;-86
2022/04/13 10:09:00;;;;;;;9.40;4.70;;;;;;;16.67;29.69;101188.59;106617;1284;22570;-83
2022/04/13 10:11:29;;;;;;;7.90;5.10;;;;;;;16.78;29.31;101187.80;106692;1282;24781;-83
2022/04/13 10:14:00;;;;;;;7.00;4.60;;;;;;;16.83;29.05;101188.58;106756;1282;26605;-85
2022/04/13 10:20:11;;;;;;;5.20;4.20;;;;;;;17.08;28.18;101176.11;107022;1281;22595;-90
2022/04/13 10:23:04;;;;;;;6.70;4.50;;;;;;;17.14;28.27;101175.09;107254;1276;26575;-86
2022/04/13 10:25:31;;;;;;;7.40;5.10;;;;;;;17.33;28.01;101182.46;107753;1276;23564;-79
2022/04/13 10:28:03;;;;;;;7.40;4.40;;;;;;;17.50;28.08;101185.79;107535;1276;22546;-85
2022/04/13 10:30:38;;;;;;;11.40;5.80;;;;;;;17.52;27.49;101173.98;107666;1276;23864;-85
2022/04/13 10:33:11;;;;;;;6.60;4.70;;;;;;;17.59;27.77;101170.79;107223;1276;22829;-84
2022/04/13 10:35:41;;;;;;;9.60;5.20;;;;;;;17.63;27.40;101179.77;107522;1276;22616;-81
2022/04/13 10:38:12;;;;;;;8.60;5.20;;;;;;;17.64;26.98;101179.05;107211;1276;22503;-84
2022/04/13 10:41:03;;;;;;;7.50;4.80;;;;;;;17.45;26.05;101176.28;107781;1276;22835;-84
2022/04/13 10:43:32;;;;;;;7.70;4.80;;;;;;;17.23;26.55;101171.14;107930;1276;23069;-85
2022/04/13 10:46:00;;;;;;;7.80;4.60;;;;;;;17.29;27.13;101168.86;107137;1282;22614;-86
2022/04/13 10:48:34;;;;;;;5.90;5.30;;;;;;;17.34;26.78;101161.26;107909;1281;22622;-85
2022/04/13 10:51:11;;;;;;;9.70;5.20;;;;;;;17.49;26.76;101160.00;108076;1282;22808;-85
2022/04/13 10:53:46;;;;;;;6.80;4.80;;;;;;;17.66;26.68;101165.25;106244;1284;22743;-83
2022/04/13 10:56:20;;;;;;;8.50;4.40;;;;;;;17.96;26.94;101158.04;105995;1281;22486;-81
2022/04/13 10:58:56;;;;;;;8.40;5.00;;;;;;;18.15;26.22;101154.51;105985;1281;25419;-81
2022/04/13 11:01:25;;;;;;;5.80;4.90;;;;;;;18.31;26.17;101159.76;106026;1282;25460;-82
2022/04/13 11:03:55;;;;;;;8.20;4.60;;;;;;;18.46;26.09;101159.50;106072;1281;22544;-82
2022/04/13 11:06:23;;;;;;;9.00;4.80;;;;;;;18.56;26.19;101148.16;105907;1282;22570;-82
2022/04/13 11:09:02;;;;;;;10.60;5.50;;;;;;;18.56;25.73;101149.59;106060;1280;22873;-83
2022/04/13 11:11:31;;;;;;;6.10;4.90;;;;;;;18.17;25.14;101153.92;106660;1276;22498;-82
2022/04/13 11:13:58;;;;;;;9.60;5.60;;;;;;;18.18;25.96;101154.79;106628;1279;25458;-81
2022/04/13 11:16:27;;;;;;;9.00;5.70;;;;;;;18.42;26.11;101164.27;106477;1279;22572;-82
2022/04/13 11:19:00;;;;;;;7.50;5.30;;;;;;;18.42;25.90;101162.85;107831;1277;22552;-89
2022/04/13 11:21:31;;;;;;;10.70;5.50;;;;;;;18.53;26.17;101158.05;108424;1276;24037;-86
2022/04/13 11:23:58;;;;;;;7.60;5.20;;;;;;;18.62;25.91;101151.74;107801;1276;22491;-84
2022/04/13 11:26:35;;;;;;;7.50;5.50;;;;;;;18.61;25.89;101150.16;106754;1276;22603;-84
2022/04/13 11:29:29;;;;;;;6.00;4.70;;;;;;;18.67;25.92;101149.61;107615;1277;22483;-89